1968 Tropical Cyclone BERTHA:BONNIE (1968051S13139)


IBTrACS version v04r00. Visit IBTrACS website for data access.
Please direct all questions to the IBTrACS Q and A forum

Storm track - Intensity - Wind Radii - Intensity Data - Source Data - All data

Summary Information

Storm ID 1968051S13139
Start Feb 19 23Z
Landfall Feb 21 06Z, Feb 21 12Z, Feb 25 21Z
Max Intensity 40 kt (Feb 25 00Z), 997 mb (Feb 24 18Z)
End Feb 27 01Z
ATCF IDs ,SH271968
Track status Best track data.

Storm track plot

Map of storm track

Intensity plots

Map of storm track

Radial wind information

No radial wind information for this storm


Position and Intensity Table

BASIN ISO_TIME_________ NATURE LAT LON WMO PRES BOM PRES DS824 WIND DS824 PRES NEUMANN WIND NEUMANN PRES
degrees north degrees east mb mb kts mb kts mb
SP 1968-02-19 23:00:00 NR -12.85 139.10 1005 1005
SP 1968-02-20 00:00:00 TS -12.84 139.06 20 1005
SP 03:00:00 TS -12.92 138.79 20 1004
SP 06:00:00 TS -12.97 138.48 30 1001 20 1004
SP 09:00:00 TS -13.01 138.21 30 1000 20 1004
SP 11:00:00 TS -13.03 138.02 30 1000 20 1004
SP 12:00:00 TS -13.04 137.92 30 1000 20 1004
SP 15:00:00 TS -13.09 137.68 30 1000 20 1004
SP 18:00:00 TS -13.13 137.45 30 1000 20 1004
SP 21:00:00 TS -13.13 137.23 30 1000 20 1004
SP 23:00:00 TS -13.12 137.09 30 1000 20 1004
SP 23:30:00 TS -13.12 137.05 1004 1004 30 1000 20 1004
SP 1968-02-21 00:00:00 TS -13.13 137.01 1004 30 1001 20 1004
SP 03:00:00 TS -13.12 136.79 1004 30 1001 20 1004
SP 06:00:00 TS -13.12 136.55 1004 30 1001 20 1004
SP 09:00:00 TS -13.14 136.32 1004 27 1001 20 1004
SP 11:00:00 TS -13.16 136.16 1004 25 1001 20 1004
SP 11:30:00 TS -13.17 136.12 1004 1004 25 1001 20 1004
SP 12:00:00 TS -13.17 136.08 1004 25 1002 20 1004
SP 12:30:00 TS -13.18 136.04 1004 1004 25 1002 20 1004
SP 15:00:00 TS -13.20 135.85 1004 25 1002 22 1004
SP 18:00:00 TS -13.25 135.61 1004 25 1002 25 1004
SP 21:00:00 TS -13.31 135.37 1004 25 1002 22 1004
SP 23:00:00 TS -13.35 135.19 1004 25 1002 20 1004
SP 23:30:00 TS -13.36 135.14 1005 1005 25 1002 20 1004
SP 1968-02-22 00:00:00 TS -13.37 135.09 1005 25 1003 20 1005
SI 03:00:00 TS -13.43 134.78 1005 25 1003 20 1005
SI 06:00:00 TS -13.49 134.40 1005 25 1003 20 1005
SI 09:00:00 TS -13.57 133.96 1005 22 1003 20 1005
SI 11:00:00 TS -13.63 133.65 1005 20 1003 20 1005
SI 11:30:00 TS -13.65 133.58 1005 1005 20 1003 20 1005
SI 12:00:00 TS -13.66 133.50 1005 20 1004 20 1005
SI 15:00:00 TS -13.74 133.07 1005 20 1004 20 1005
SI 18:00:00 TS -13.82 132.67 1005 20 1004 20 1005
SI 21:00:00 TS -13.90 132.29 1005 20 1004 20 1005
SI 23:00:00 TS -13.94 132.07 1005 20 1004 20 1005
SI 23:30:00 TS -13.95 132.03 1005 1005 20 1004 20 1005
SI 1968-02-23 00:00:00 TS -13.96 131.98 1004 20 1004 20 1005
SI 03:00:00 TS -13.98 131.77 1004 22 1003 22 1004
SI 06:00:00 TS -13.99 131.62 1004 25 1002 25 1004
SI 09:00:00 TS -14.01 131.45 1004 25 1002 25 1004
SI 11:00:00 TS -14.02 131.33 1004 25 1002 25 1004
SI 11:30:00 TS -14.03 131.30 1004 1004 25 1002 25 1004
SI 12:00:00 TS -14.03 131.27 1003 25 1002 25 1004
SI 15:00:00 TS -14.05 131.07 1003 25 1002 25 1003
SI 18:00:00 TS -14.08 130.87 1002 25 1003 25 1003
SI 21:00:00 TS -14.13 130.65 1002 25 1003 27 1002
SI 23:00:00 TS -14.17 130.51 1002 25 1003 29 1002
SI 23:30:00 TS -14.18 130.47 1002 1002 25 1003 29 1002
SI 1968-02-24 00:00:00 TS -14.19 130.44 1001 25 1003 30 1002
SI 03:00:00 TS -14.27 130.29 1001 25 1002 30 1001
SI 06:00:00 TS -14.37 130.15 1000 25 1002 30 1000
SI 09:00:00 TS -14.50 130.00 999 25 1002 32 999
SI 11:00:00 TS -14.60 129.90 999 25 1002 34 999
SI 11:30:00 TS -14.62 129.88 999 999 25 1002 34 999
SI 12:00:00 TS -14.62 129.92 998 25 1002 35 999
SI 15:00:00 TS -14.68 129.87 998 27 1001 35 998
SI 18:00:00 TS -14.64 129.92 997 30 1001 35 998
SI 21:00:00 TS -14.54 130.06 997 30 1001 37 997
SI 23:00:00 TS -14.51 130.11 997 30 1001 39 997
SI 23:30:00 TS -14.41 130.21 997 997 30 1001 39 997
SI 1968-02-25 00:00:00 TS -14.43 130.19 997 30 1001 40 997
SI 03:00:00 TS -14.52 130.09 997 30 1000 40 997
SI 06:00:00 TS -14.62 129.96 997 30 1000 40 997
SI 09:00:00 TS -14.69 129.85 997 30 1000 40 997
SI 11:30:00 TS -14.74 129.76 997 997 30 1000 40 997
SI 12:00:00 TS -14.75 129.75 997 30 1001 40 997
SI 15:00:00 TS -14.84 129.65 997 30 1001 40 997
SI 18:00:00 TS -14.94 129.54 998 30 1001 40 997
SI 21:00:00 TS -15.04 129.42 998 30 1001 37 997
SI 23:30:00 TS -15.13 129.32 999 999 30 1001 35 997
SI 1968-02-26 00:00:00 TS -15.16 129.29 999 30 1001 35 998
SI 03:00:00 TS -15.32 129.17 999 30 1000 35 998
SI 06:00:00 TS -15.52 129.03 999 30 1000 35 999
SI 09:00:00 TS -15.77 128.83 999 30 1000 32 999
SI 11:00:00 TS -15.96 128.69 1000 1000 30 1000 30 999
SI 12:00:00 TS -16.10 128.61 30 1000 30 1000
SI 15:00:00 TS -16.37 128.43 30 1000
SI 18:00:00 TS -16.55 128.30 30 1000
SI 21:00:00 TS -16.73 128.18 27 1000
SI 1968-02-27 00:00:00 TS -16.92 128.07 25 1000
SI 01:00:00 NR -17.00 128.00 1001 1001

Source Information

Agency Information
USA bsh271968.txt
TOKYO
CMA
HKO
NEWDELHI
REUNION
BOM IDCKMSTM0S.csv:Line=5140:BONNIE
NADI
WELLINGTON
DS824 aus_area.dat:422:BERTHA
TD9636 cons_worldwide_trop_cyclone_18710101-19891231-006:Line=7954
TD9635
NEUMANN tracks.sh:Storm=217:BONNIE:BSH2768:BM370
MLC

All available IBTrACS Data

SEASON BASIN SUBBASIN ISO_TIME_________ NATURE LAT LON WMO PRES WMO AGENCY DIST2LAND LANDFALL IFLAG USA AGENCY USA ATCF_ID USA LAT USA LON USA SSHS BOM LAT BOM LON BOM PRES BOM PRES_METHOD DS824 LAT DS824 LON DS824 STAGE DS824 WIND DS824 PRES TD9636 LAT TD9636 LON TD9636 STAGE NEUMANN LAT NEUMANN LON NEUMANN CLASS NEUMANN WIND NEUMANN PRES STORM SPEED STORM DIR
Year degrees north degrees east mb km km degrees north degrees east 1 degrees north degrees east mb degrees north degrees east kts mb degrees north degrees east degrees north degrees east kts mb kts degrees
1968 SP EA 1968-02-19 23:00:00 NR -12.85 139.10 1005 bom 234 234 ______O___O___ -1 -13.00 139.00 1005 -12.70 139.20 1 2 283
1968 SP EA 1968-02-20 00:00:00 TS -12.84 139.06 234 206 O_____P___P_O_ jtwc_sh SH271968 -12.70 139.10 -1 -13.02 138.91 -12.73 139.11 1 -13.00 139.20 TC 20 1005 5 258
1968 SP EA 03:00:00 TS -12.92 138.79 206 180 P_____P___P_P_ SH271968 -12.81 138.79 -1 -13.07 138.65 -12.80 138.83 1 -13.06 138.95 TC 20 1004 6 257
1968 SP EA 06:00:00 TS -12.97 138.48 180 152 O_____P__OP_O_ jtwc_sh SH271968 -12.90 138.50 -1 -13.12 138.39 -12.80 137.80 TC 30 1001 -12.88 138.55 1 -13.10 138.70 TC 20 1004 6 261
1968 SP EA 09:00:00 TS -13.01 138.21 152 133 P_____P__PP_P_ SH271968 -12.95 138.24 -1 -13.16 138.13 -12.87 137.59 TC 30 1000 -12.95 138.28 1 -13.10 138.45 TC 20 1004 5 263
1968 SP EA 11:00:00 TS -13.03 138.02 133 125 P_____P__PO_P_ SH271968 -12.98 138.08 -1 -13.19 137.96 -12.89 137.46 TC 30 1000 -13.00 138.10 1 -13.10 138.28 TC 20 1004 6 264
1968 SP EA 12:00:00 TS -13.04 137.92 125 108 O_____P__OP_O_ jtwc_sh SH271968 -13.00 138.00 -1 -13.20 137.88 -12.90 137.40 TC 30 1000 -13.02 138.01 1 -13.10 138.20 TC 20 1004 5 259
1968 SP EA 15:00:00 TS -13.09 137.68 108 87 P_____P__PP_P_ SH271968 -13.11 137.75 -1 -13.24 137.63 -12.88 137.24 TC 30 1000 -13.09 137.76 1 -13.14 137.95 TC 20 1004 5 258
1968 SP EA 18:00:00 TS -13.13 137.45 87 55 O_____P__OP_O_ jtwc_sh SH271968 -13.20 137.50 -1 -13.27 137.40 -12.80 137.10 TC 30 1000 -13.14 137.51 1 -13.20 137.70 TC 20 1004 4 265
1968 SP EA 21:00:00 TS -13.13 137.23 55 44 P_____P__PP_P_ SH271968 -13.21 137.25 -1 -13.29 137.18 -12.65 137.01 TC 30 1000 -13.18 137.26 1 -13.26 137.44 TC 20 1004 4 272
1968 SP EA 23:00:00 TS -13.12 137.09 44 44 P_____P__PO_P_ SH271968 -13.21 137.08 -1 -13.30 137.03 -12.54 136.94 TC 30 1000 -13.20 137.10 1 -13.29 137.28 TC 20 1004 4 274
1968 SP EA 23:30:00 TS -13.12 137.05 1004 bom 44 34 P_____O__PP_P_ SH271968 -13.20 137.04 -1 -13.30 137.00 1004 -12.52 136.92 TC 30 1000 -13.20 137.06 1 -13.30 137.24 TC 20 1004 4 269
1968 SP EA 1968-02-21 00:00:00 TS -13.13 137.01 34 15 O_____P__OP_O_ jtwc_sh SH271968 -13.20 137.00 -1 -13.30 136.97 1004 -12.50 136.90 TC 30 1001 -13.21 137.02 1 -13.30 137.20 TC 20 1004 4 270
1968 SP EA 03:00:00 TS -13.12 136.79 15 0 P_____P__PP_P_ SH271968 -13.20 136.75 -1 -13.31 136.77 1004 -12.41 136.71 TC 30 1001 -13.22 136.77 1 -13.31 137.00 TC 20 1004 4 270
1968 SP EA 06:00:00 TS -13.12 136.55 0 0 O_____P__OP_O_ jtwc_sh SH271968 -13.20 136.50 -1 -13.30 136.56 1004 -12.40 136.50 TC 30 1001 -13.21 136.52 1 -13.30 136.80 TC 20 1004 5 267
1968 SP EA 09:00:00 TS -13.14 136.32 0 0 P_____P__PP_P_ SH271968 -13.20 136.25 -1 -13.30 136.33 1004 -12.52 136.34 TC 27 1001 -13.21 136.27 1 -13.29 136.56 TC 20 1004 5 264
1968 SP EA 11:00:00 TS -13.16 136.16 0 0 P_____P__PO_P_ SH271968 -13.20 136.08 -1 -13.30 136.15 1004 -12.64 136.25 TC 25 1001 -13.20 136.10 2 -13.29 136.39 TC 20 1004 5 263
1968 SP EA 11:30:00 TS -13.17 136.12 1004 bom 10 10 P_____O__PP_P_ SH271968 -13.20 136.04 -1 -13.30 136.10 1004 -12.67 136.22 TC 25 1001 -13.20 136.06 2 -13.30 136.34 TC 20 1004 5 263
1968 SP EA 12:00:00 TS -13.17 136.08 10 10 O_____P__OP_O_ jtwc_sh SH271968 -13.20 136.00 -1 -13.30 136.05 1004 -12.70 136.20 TC 25 1002 -13.20 136.02 2 -13.30 136.30 TC 20 1004 5 263
1968 SP EA 12:30:00 TS -13.18 136.04 1004 bom 0 0 P_____O__PP_P_ SH271968 -13.20 135.96 -1 -13.30 136.00 1004 -12.72 136.18 TC 25 1002 -13.20 135.98 2 -13.30 136.26 TC 20 1004 5 262
1968 SP EA 15:00:00 TS -13.20 135.85 0 0 P_____P__PP_P_ SH271968 -13.20 135.75 -1 -13.32 135.77 1004 -12.83 136.06 TC 25 1002 -13.19 135.79 2 -13.34 136.06 TC 22 1004 5 260
1968 SP EA 18:00:00 TS -13.25 135.61 0 0 O_____P__OP_O_ jtwc_sh SH271968 -13.20 135.50 -1 -13.37 135.51 1004 -13.00 135.90 TC 25 1002 -13.19 135.55 2 -13.40 135.80 TC 25 1004 5 257
1968 SP EA 21:00:00 TS -13.31 135.37 0 0 P_____P__PP_P_ SH271968 -13.20 135.26 -1 -13.44 135.24 1004 -13.24 135.72 TC 25 1002 -13.19 135.29 2 -13.45 135.51 TC 22 1004 5 256
1968 SP EA 23:00:00 TS -13.35 135.19 0 0 P_____P__PO_P_ SH271968 -13.20 135.09 -1 -13.49 135.05 1004 -13.42 135.58 TC 25 1002 -13.20 135.10 1 -13.48 135.31 TC 20 1004 5 256
1968 SP EA 23:30:00 TS -13.36 135.14 1005 bom 0 0 P_____O__PP_P_ SH271968 -13.20 135.05 -1 -13.50 135.00 1005 -13.46 135.54 TC 25 1002 -13.20 135.05 1 -13.49 135.25 TC 20 1004 6 258
1968 SP EA 1968-02-22 00:00:00 TS -13.37 135.09 0 0 O_____P__OP_O_ jtwc_sh SH271968 -13.20 135.00 -1 -13.51 134.95 1005 -13.50 135.50 TC 25 1003 -13.20 135.00 1 -13.50 135.20 TC 20 1005 6 260
1968 SI WA 03:00:00 TS -13.43 134.78 0 0 P_____P__PP_P_ SH271968 -13.19 134.66 -1 -13.58 134.60 1005 -13.71 135.31 TC 25 1003 -13.20 134.67 1 -13.54 134.86 TC 20 1005 7 260
1968 SI WA 06:00:00 TS -13.49 134.40 0 0 O_____P__OP_O_ jtwc_sh SH271968 -13.20 134.30 -1 -13.66 134.22 1005 -13.90 134.90 TC 25 1003 -13.22 134.32 1 -13.60 134.50 TC 20 1005 8 260
1968 SI WA 09:00:00 TS -13.57 133.96 0 0 P_____P__PP_P_ SH271968 -13.23 133.96 -1 -13.73 133.83 1005 -14.15 133.98 TC 22 1003 -13.26 133.95 1 -13.70 134.16 TC 20 1005 9 259
1968 SI WA 11:00:00 TS -13.63 133.65 0 0 P_____P__PO_P_ SH271968 -13.27 133.72 -1 -13.79 133.57 1005 -14.27 133.30 TC 20 1003 -13.30 133.70 1 -13.77 133.92 TC 20 1005 9 259
1968 SI WA 11:30:00 TS -13.65 133.58 1005 bom 0 0 P_____O__PP_P_ SH271968 -13.28 133.66 -1 -13.80 133.50 1005 -14.29 133.14 TC 20 1003 -13.32 133.64 1 -13.79 133.86 TC 20 1005 9 259
1968 SI WA 12:00:00 TS -13.66 133.50 0 0 O_____P__OP_O_ jtwc_sh SH271968 -13.30 133.60 -1 -13.81 133.43 1005 -14.30 133.00 TC 20 1004 -13.33 133.57 1 -13.80 133.80 TC 20 1005 9 259
1968 SI WA 15:00:00 TS -13.74 133.07 0 0 P_____P__PP_P_ SH271968 -13.44 133.20 -1 -13.90 133.01 1005 -14.24 132.41 TC 20 1004 -13.46 133.18 1 -13.85 133.40 TC 20 1005 8 259
1968 SI WA 18:00:00 TS -13.82 132.67 0 0 O_____P__OP_O_ jtwc_sh SH271968 -13.60 132.80 -1 -13.98 132.61 1005 -14.10 132.00 TC 20 1004 -13.61 132.78 1 -13.90 133.00 TC 20 1005 8 258
1968 SI WA 21:00:00 TS -13.90 132.29 0 0 P_____P__PP_P_ SH271968 -13.72 132.42 -1 -14.05 132.25 1005 -14.03 131.61 TC 20 1004 -13.73 132.42 1 -14.01 132.61 TC 20 1005 7 258
1968 SI WA 23:00:00 TS -13.94 132.07 0 0 P_____P__PO_P_ SH271968 -13.78 132.20 -1 -14.09 132.04 1005 -14.00 131.39 TC 20 1004 -13.80 132.20 1 -14.08 132.39 TC 20 1005 6 259
1968 SI WA 23:30:00 TS -13.95 132.03 1005 bom 0 0 P_____O__PP_P_ SH271968 -13.79 132.15 -1 -14.10 132.00 1005 -14.00 131.34 TC 20 1004 -13.81 132.15 1 -14.09 132.34 TC 20 1005 5 260
1968 SI WA 1968-02-23 00:00:00 TS -13.96 131.98 0 0 O_____P__OP_O_ jtwc_sh SH271968 -13.80 132.10 -1 -14.11 131.96 1004 -14.00 131.30 TC 20 1004 -13.82 132.11 1 -14.10 132.30 TC 20 1005 4 263
1968 SI WA 03:00:00 TS -13.98 131.77 0 0 P_____P__PP_P_ SH271968 -13.81 131.88 -1 -14.13 131.79 1004 -14.03 131.07 TC 22 1003 -13.83 131.86 1 -14.11 132.12 TC 22 1004 4 265
1968 SI WA 06:00:00 TS -13.99 131.62 0 0 O_____P__OP_O_ jtwc_sh SH271968 -13.80 131.70 -1 -14.15 131.67 1004 -14.10 130.90 TC 25 1002 -13.82 131.65 1 -14.10 132.00 TC 25 1004 3 265
1968 SI WA 09:00:00 TS -14.01 131.45 0 0 P_____P__PP_P_ SH271968 -13.80 131.46 -1 -14.17 131.58 1004 -14.16 130.74 TC 25 1002 -13.81 131.45 1 -14.14 131.85 TC 25 1004 3 263
1968 SI WA 11:00:00 TS -14.02 131.33 0 0 P_____P__PO_P_ SH271968 -13.80 131.29 -1 -14.19 131.52 1004 -14.19 130.64 TC 25 1002 -13.80 131.30 1 -14.18 131.75 TC 25 1004 3 263
1968 SI WA 11:30:00 TS -14.03 131.30 1004 bom 0 0 P_____O__PP_P_ SH271968 -13.80 131.24 -1 -14.20 131.50 1004 -14.20 130.62 TC 25 1002 -13.80 131.26 1 -14.19 131.73 TC 25 1004 4 262
1968 SI WA 12:00:00 TS -14.03 131.27 0 0 O_____P__OP_O_ jtwc_sh SH271968 -13.80 131.20 -1 -14.21 131.47 1003 -14.20 130.60 TC 25 1002 -13.80 131.21 1 -14.20 131.70 TC 25 1004 4 263
1968 SI WA 15:00:00 TS -14.05 131.07 0 0 P_____P__PP_P_ SH271968 -13.79 130.96 -1 -14.28 131.29 1003 -14.21 130.49 TC 25 1002 -13.78 130.94 1 -14.24 131.56 TC 25 1003 4 262
1968 SI WA 18:00:00 TS -14.08 130.87 0 0 O_____P__OP_O_ jtwc_sh SH271968 -13.80 130.70 -1 -14.36 131.10 1002 -14.20 130.40 TC 25 1003 -13.79 130.66 1 -14.30 131.40 TC 25 1003 4 259
1968 SI WA 21:00:00 TS -14.13 130.65 0 0 P_____P__PP_P_ SH271968 -13.82 130.40 -1 -14.44 130.93 1002 -14.17 130.29 TC 25 1003 -13.84 130.38 1 -14.40 131.19 TC 27 1002 4 256
1968 SI WA 23:00:00 TS -14.17 130.51 0 0 P_____P__PO_P_ SH271968 -13.86 130.20 -1 -14.49 130.82 1002 -14.13 130.23 TC 25 1003 -13.90 130.20 1 -14.47 131.05 TC 29 1002 4 253
1968 SI WA 23:30:00 TS -14.18 130.47 1002 bom 0 0 P_____O__PP_P_ SH271968 -13.88 130.15 -1 -14.50 130.80 1002 -14.12 130.21 TC 25 1003 -13.92 130.16 1 -14.49 131.02 TC 29 1002 4 246
1968 SI WA 1968-02-24 00:00:00 TS -14.19 130.44 0 0 O_____P__OP_O_ jtwc_sh SH271968 -13.90 130.10 -1 -14.51 130.78 1001 -14.10 130.20 TC 25 1003 -13.94 130.11 1 -14.50 131.00 TC 30 1002 3 245
1968 SI WA 03:00:00 TS -14.27 130.29 0 0 P_____P__PP_P_ SH271968 -14.06 129.84 -1 -14.57 130.69 1001 -13.95 130.14 TC 25 1002 -14.11 129.85 1 -14.56 130.93 TC 30 1001 3 238
1968 SI WA 06:00:00 TS -14.37 130.15 0 0 O_____P__OP_O_ jtwc_sh SH271968 -14.30 129.60 -1 -14.62 130.62 1000 -13.80 130.10 TC 25 1002 -14.33 129.60 1 -14.60 130.90 TC 30 1000 4 230
1968 SI WA 09:00:00 TS -14.50 130.00 0 0 P_____P__PP_P_ SH271968 -14.58 129.34 -1 -14.67 130.56 999 -13.76 130.03 TC 25 1002 -14.60 129.36 1 -14.66 130.81 TC 32 999 4 226
1968 SI WA 11:00:00 TS -14.60 129.90 0 0 P_____P__PO_P_ SH271968 -14.79 129.18 -1 -14.69 130.51 999 -13.73 130.00 TC 25 1002 -14.80 129.20 1 -14.69 130.74 TC 34 999 4 224
1968 SI WA 11:30:00 TS -14.62 129.88 999 bom 0 0 P_____O__PP_P_ SH271968 -14.84 129.14 -1 -14.70 130.50 999 -13.72 130.00 TC 25 1002 -14.85 129.16 1 -14.70 130.72 TC 34 999 2 0
1968 SI WA 12:00:00 TS -14.62 129.92 0 0 O_____P__OP_O_ jtwc_sh SH271968 -14.90 129.10 -1 -14.70 130.48 998 -13.70 130.00 TC 25 1002 -14.90 129.12 1 -14.70 130.70 TC 35 999 1 0
1968 SI WA 15:00:00 TS -14.68 129.87 0 0 P_____P__PP_P_ SH271968 -15.25 128.89 -1 -14.73 130.37 998 -13.43 130.06 TC 27 1001 -15.24 128.89 1 -14.70 130.61 TC 35 998 0 0
1968 SI WA 18:00:00 TS -14.64 129.92 0 0 O_____P__OP_O_ jtwc_sh SH271968 -15.60 128.70 -1 -14.75 130.25 997 -13.20 130.20 TC 30 1001 -15.59 128.67 1 -14.70 130.50 TC 35 998 2 53
1968 SI WA 21:00:00 TS -14.54 130.06 0 0 ______P__PP_P_ SH271968 -1 -14.77 130.12 997 -13.18 130.41 TC 30 1001 -15.95 128.45 1 -14.74 130.36 TC 37 997 3 53
1968 SI WA 23:00:00 TS -14.51 130.11 0 0 ______P__PO_P_ SH271968 -1 -14.79 130.02 997 -13.25 130.55 TC 30 1001 -16.20 128.30 1 -14.78 130.25 TC 39 997 5 49
1968 SI WA 23:30:00 TS -14.41 130.21 997 bom 0 0 ______O__P__P_ SH271968 -1 -14.80 130.00 997 4 -13.27 130.58 TC 30 1001 1 -14.79 130.23 TC 39 997 7 47
1968 SI WA 1968-02-25 00:00:00 TS -14.43 130.19 0 0 ______P__O__O_ -1 -14.81 129.98 997 -13.30 130.60 TC 30 1001 1 -14.80 130.20 TC 40 997 3 227
1968 SI WA 03:00:00 TS -14.52 130.09 0 0 ______P__P__P_ -1 -14.87 129.82 997 -13.51 130.63 TC 30 1000 1 -14.84 130.05 TC 40 997 3 229
1968 SI WA 06:00:00 TS -14.62 129.96 0 0 ______P__O__O_ -1 -14.94 129.67 997 -13.70 130.60 TC 30 1000 1 -14.90 129.90 TC 40 997 3 234
1968 SI WA 09:00:00 TS -14.69 129.85 0 0 ______P__P__P_ -1 -15.02 129.52 997 -13.71 130.62 TC 30 1000 1 -14.99 129.74 TC 40 997 3 237
1968 SI WA 11:30:00 TS -14.74 129.76 997 bom 0 0 ______O__P__P_ -1 -15.10 129.40 997 -13.70 130.61 TC 30 1000 -15.08 129.62 TC 40 997 2 237
1968 SI WA 12:00:00 TS -14.75 129.75 0 0 ______P__O__O_ -1 -15.11 129.38 997 -13.70 130.60 TC 30 1001 -15.10 129.60 TC 40 997 3 228
1968 SI WA 15:00:00 TS -14.84 129.65 10 10 ______P__P__P_ -1 -15.19 129.27 997 -13.78 130.53 TC 30 1001 -15.20 129.49 TC 40 997 3 226
1968 SI WA 18:00:00 TS -14.94 129.54 11 0 ______P__O__O_ -1 -15.28 129.18 998 -13.90 130.40 TC 30 1001 -15.30 129.40 TC 40 997 3 227
1968 SI WA 21:00:00 TS -15.04 129.42 0 0 ______P__P__P_ -1 -15.39 129.08 998 -13.98 130.21 TC 30 1001 -15.39 129.30 TC 37 997 3 228
1968 SI WA 23:30:00 TS -15.13 129.32 999 bom 0 0 ______O__P__P_ -1 -15.50 129.00 999 -14.07 130.04 TC 30 1001 -15.48 129.22 TC 35 997 3 226
1968 SI WA 1968-02-26 00:00:00 TS -15.16 129.29 0 0 ______P__O__O_ -1 -15.52 128.98 999 -14.10 130.00 TC 30 1001 -15.50 129.20 TC 35 998 4 217
1968 SI WA 03:00:00 TS -15.32 129.17 0 0 ______P__P__P_ -1 -15.69 128.85 999 -14.33 129.81 TC 30 1000 -15.63 129.11 TC 35 998 4 216
1968 SI WA 06:00:00 TS -15.52 129.03 0 0 ______P__O__O_ -1 -15.88 128.72 999 -14.60 129.60 TC 30 1000 -15.80 129.00 TC 35 999 6 216
1968 SI WA 09:00:00 TS -15.77 128.83 0 0 ______P__P__P_ -1 -16.07 128.59 999 -14.82 129.36 TC 30 1000 -16.00 128.86 TC 32 999 7 215
1968 SI WA 11:00:00 TS -15.96 128.69 1000 bom 0 0 ______O__P__P_ -1 -16.20 128.50 1000 -14.94 129.19 TC 30 1000 -16.14 128.75 TC 30 999 8 213
1968 SI WA 12:00:00 TS -16.10 128.61 0 0 ______P__O__O_ -1 -16.26 128.46 -15.00 129.10 TC 30 1000 -16.20 128.70 TC 30 1000 7 212
1968 SI WA 15:00:00 TS -16.37 128.43 0 0 ______P_____P_ -1 -16.44 128.34 TC -16.35 128.54 TC 30 1000 5 214
1968 SI WA 18:00:00 TS -16.55 128.30 0 0 ______P_____O_ -1 -16.62 128.23 -16.50 128.40 TC 30 1000 4 213
1968 SI WA 21:00:00 TS -16.73 128.18 0 0 ______P_____P_ -1 -16.78 128.13 -16.69 128.29 TC 27 1000 4 211
1968 SI WA 1968-02-27 00:00:00 TS -16.92 128.07 0 0 ______P_____O_ -1 -16.95 128.03 -16.90 128.20 TC 25 1000 5 213
1968 SI WA 01:00:00 NR -17.00 128.00 1001 bom 0 ______O_______ -1 -17.00 128.00 1001 TC 6 223